Time;durP1;ratioP1;P1;durP2;ratioP2;P2;SDS_P1;SDS_P2;PMS_P1;PMS_P2;Temp;Humidity;BMP_temperature;BMP_pressure;BME280_temperature;BME280_humidity;BME280_pressure;Samples;Min_cycle;Max_cycle;Signal;HPM_P1;HPM_P2
2023/09/20 00:01:56;;;;;;;17.73;4.28;;;25.70;99.90;;;;;;5031198;28;20113;-74
2023/09/20 00:04:22;;;;;;;;;;;25.70;99.90;;;;;;5031139;28;20021;-74
2023/09/20 00:06:48;;;;;;;;;;;25.70;99.90;;;;;;5031368;28;19905;-74
2023/09/20 00:09:17;;;;;;;13.93;4.70;;;25.70;99.90;;;;;;5030627;28;20221;-73
2023/09/20 00:11:44;;;;;;;14.98;4.85;;;25.70;99.90;;;;;;5029160;28;20018;-73
2023/09/20 00:14:10;;;;;;;14.95;5.28;;;25.70;99.90;;;;;;5030756;28;20030;-74
2023/09/20 00:16:36;;;;;;;14.23;5.63;;;25.60;99.90;;;;;;5030633;28;20473;-74
2023/09/20 00:19:02;;;;;;;11.85;5.18;;;25.60;99.90;;;;;;5030530;28;20101;-74
2023/09/20 00:21:28;;;;;;;14.45;5.00;;;25.60;99.90;;;;;;5030697;28;20036;-73
2023/09/20 00:23:55;;;;;;;11.30;5.03;;;25.60;99.90;;;;;;5030221;28;20028;-73
2023/09/20 00:26:21;;;;;;;14.98;4.97;;;25.50;99.90;;;;;;5030487;28;20021;-73
2023/09/20 00:28:48;;;;;;;21.38;5.43;;;25.50;99.90;;;;;;5030635;28;20022;-73
2023/09/20 00:31:17;;;;;;;10.60;4.75;;;25.50;99.90;;;;;;5030369;28;20064;-73
2023/09/20 00:33:43;;;;;;;13.85;4.80;;;25.50;99.90;;;;;;5030582;28;20029;-73
2023/09/20 00:36:19;;;;;;;10.18;4.65;;;25.50;99.90;;;;;;5030141;28;20175;-73
2023/09/20 00:38:45;;;;;;;13.57;5.03;;;25.40;99.90;;;;;;5028644;28;20022;-74
2023/09/20 00:41:11;;;;;;;15.30;5.32;;;25.40;99.90;;;;;;5030516;28;20075;-74
2023/09/20 00:43:38;;;;;;;15.55;5.60;;;25.30;99.90;;;;;;5030281;28;20041;-74
2023/09/20 00:46:04;;;;;;;13.80;5.22;;;25.20;99.90;;;;;;5030077;28;20041;-74
2023/09/20 00:48:31;;;;;;;16.63;5.18;;;25.10;99.90;;;;;;5030060;28;20420;-75
2023/09/20 00:50:58;;;;;;;11.82;5.10;;;25.20;99.90;;;;;;5030434;28;20044;-73
2023/09/20 00:53:25;;;;;;;15.98;5.88;;;25.20;99.90;;;;;;5028582;28;20068;-75
2023/09/20 00:55:51;;;;;;;19.65;5.50;;;25.30;99.90;;;;;;5028516;28;20472;-73
2023/09/20 00:58:20;;;;;;;15.85;4.90;;;25.30;99.90;;;;;;5033243;28;20423;-73
2023/09/20 01:00:47;;;;;;;16.70;5.07;;;25.30;99.90;;;;;;5034117;28;20108;-74
2023/09/20 01:03:17;;;;;;;15.95;5.72;;;25.30;99.90;;;;;;5034123;28;20028;-74
2023/09/20 01:05:46;;;;;;;17.20;5.05;;;25.20;99.90;;;;;;5032510;28;20033;-74
2023/09/20 01:08:13;;;;;;;11.00;5.50;;;25.20;99.90;;;;;;5032199;28;20120;-74
2023/09/20 01:10:39;;;;;;;15.63;5.55;;;25.00;99.90;;;;;;5033935;28;20029;-74
2023/09/20 01:13:09;;;;;;;15.73;5.63;;;25.00;99.90;;;;;;5032404;28;20059;-74
2023/09/20 01:15:37;;;;;;;14.85;5.55;;;24.90;99.90;;;;;;5032232;28;20041;-74
2023/09/20 01:18:04;;;;;;;16.05;5.65;;;25.00;99.90;;;;;;5033704;28;20030;-73
2023/09/20 01:20:37;;;;;;;19.52;5.75;;;25.10;99.90;;;;;;5034074;28;20040;-75
2023/09/20 01:23:03;;;;;;;16.30;6.40;;;25.20;99.90;;;;;;5032037;28;20092;-74
2023/09/20 01:25:31;;;;;;;17.77;6.18;;;25.30;99.90;;;;;;5032163;28;20033;-74
2023/09/20 01:27:59;;;;;;;17.25;6.00;;;25.40;99.90;;;;;;5032037;28;20409;-74
2023/09/20 01:30:28;;;;;;;13.07;5.22;;;25.50;99.90;;;;;;5033652;28;20033;-74
2023/09/20 01:32:59;;;;;;;13.90;4.65;;;25.50;99.90;;;;;;5033763;28;20369;-73
2023/09/20 01:35:28;;;;;;;16.48;5.15;;;25.50;99.90;;;;;;5033601;28;20044;-74
2023/09/20 01:37:55;;;;;;;15.50;5.25;;;25.50;99.90;;;;;;5033159;28;20029;-75
2023/09/20 01:40:33;;;;;;;16.10;5.25;;;25.40;99.90;;;;;;5033668;28;20025;-74
2023/09/20 01:43:00;;;;;;;15.80;5.85;;;25.30;99.90;;;;;;5033717;28;20048;-74
2023/09/20 01:45:27;;;;;;;12.15;5.80;;;25.20;99.90;;;;;;5033145;28;20473;-74
2023/09/20 01:47:55;;;;;;;17.02;5.70;;;25.30;99.90;;;;;;5031928;28;20032;-74
2023/09/20 01:50:24;;;;;;;20.63;6.32;;;25.50;99.90;;;;;;5031910;28;20092;-74
2023/09/20 01:52:58;;;;;;;18.92;6.35;;;25.50;99.90;;;;;;5031596;28;20103;-74
2023/09/20 01:55:27;;;;;;;16.02;5.70;;;25.60;99.90;;;;;;5033379;28;20057;-74
2023/09/20 01:57:55;;;;;;;17.10;5.97;;;25.60;99.90;;;;;;5033153;28;20028;-74
2023/09/20 02:00:37;;;;;;;14.73;6.00;;;25.70;99.90;;;;;;5033153;28;20108;-75
2023/09/20 02:03:09;;;;;;;20.20;6.20;;;25.70;99.90;;;;;;5033221;28;20022;-74
2023/09/20 02:05:38;;;;;;;19.33;5.75;;;25.60;99.90;;;;;;5033220;28;20095;-74
2023/09/20 02:08:06;;;;;;;24.02;6.15;;;25.60;99.90;;;;;;5032076;28;20080;-74
2023/09/20 02:10:33;;;;;;;21.77;6.22;;;25.70;99.90;;;;;;5032797;28;20097;-74
2023/09/20 02:12:59;;;;;;;18.73;5.70;;;25.70;99.90;;;;;;5032873;28;20553;-74
2023/09/20 02:15:29;;;;;;;16.23;6.18;;;25.70;99.90;;;;;;5032711;28;20032;-74
2023/09/20 02:17:56;;;;;;;20.23;6.10;;;25.70;99.90;;;;;;5032906;28;20124;-74
2023/09/20 02:20:24;;;;;;;14.10;6.00;;;25.70;99.90;;;;;;5032894;28;20026;-74
2023/09/20 02:22:55;;;;;;;15.70;6.10;;;25.70;99.90;;;;;;5032234;28;20104;-74
2023/09/20 02:25:24;;;;;;;13.60;5.63;;;25.60;99.90;;;;;;5032395;28;20105;-74
2023/09/20 02:27:51;;;;;;;18.90;5.55;;;25.70;99.90;;;;;;5032374;28;20061;-72
2023/09/20 02:30:19;;;;;;;18.98;5.68;;;25.80;99.90;;;;;;5032409;28;20381;-74
2023/09/20 02:32:51;;;;;;;19.77;5.88;;;25.80;99.90;;;;;;5032300;28;20073;-74
2023/09/20 02:35:17;;;;;;;14.05;5.72;;;25.90;99.90;;;;;;5030866;28;20148;-75
2023/09/20 02:37:46;;;;;;;20.25;6.05;;;25.90;99.90;;;;;;5032054;28;20395;-74
2023/09/20 02:40:17;;;;;;;21.35;6.30;;;25.90;99.90;;;;;;5031903;28;20021;-74
2023/09/20 02:42:48;;;;;;;15.15;5.97;;;25.90;99.90;;;;;;5032264;28;20026;-74
2023/09/20 02:45:22;;;;;;;12.60;5.63;;;25.90;99.90;;;;;;5032044;28;20087;-74
2023/09/20 02:47:49;;;;;;;18.52;6.03;;;25.90;99.90;;;;;;5032379;28;20062;-74
2023/09/20 02:50:18;;;;;;;24.35;6.45;;;25.90;99.90;;;;;;5030458;28;20486;-75
2023/09/20 02:52:45;;;;;;;20.02;5.55;;;25.80;99.90;;;;;;5031670;28;20045;-75
2023/09/20 02:55:13;;;;;;;19.65;5.68;;;25.90;99.90;;;;;;5031677;28;20102;-74
2023/09/20 02:57:41;;;;;;;15.75;5.40;;;25.90;99.90;;;;;;5032201;28;20048;-75
2023/09/20 03:00:15;;;;;;;24.23;5.63;;;25.90;99.90;;;;;;5030671;28;20025;-75
2023/09/20 03:02:46;;;;;;;20.50;5.68;;;25.90;99.90;;;;;;5032187;28;20044;-74
2023/09/20 03:05:15;;;;;;;15.75;5.43;;;25.90;99.90;;;;;;5032253;28;20021;-74
2023/09/20 03:07:45;;;;;;;16.70;6.03;;;25.90;99.90;;;;;;5032618;28;20524;-74
2023/09/20 03:10:12;;;;;;;27.58;5.32;;;25.90;99.90;;;;;;5032679;28;20095;-74
2023/09/20 03:12:43;;;;;;;22.50;5.35;;;25.90;99.90;;;;;;5033050;28;20141;-74
2023/09/20 03:15:17;;;;;;;15.57;5.40;;;26.00;99.90;;;;;;5015146;28;20025;-74
2023/09/20 03:17:50;;;;;;;12.18;5.05;;;26.00;99.90;;;;;;5032879;28;20033;-74
2023/09/20 03:20:18;;;;;;;20.13;5.53;;;26.10;99.90;;;;;;5032252;28;20539;-74
2023/09/20 03:22:46;;;;;;;19.25;5.15;;;26.10;99.90;;;;;;5032186;28;20025;-74
2023/09/20 03:25:13;;;;;;;21.85;4.93;;;26.20;99.90;;;;;;5033096;28;20099;-74
2023/09/20 03:27:43;;;;;;;15.43;4.60;;;26.20;99.90;;;;;;5031951;28;20053;-75
2023/09/20 03:30:28;;;;;;;26.40;4.78;;;26.20;99.90;;;;;;5032368;28;20029;-73
2023/09/20 03:32:54;;;;;;;15.52;4.85;;;26.30;99.90;;;;;;5032370;28;20025;-74
2023/09/20 03:35:21;;;;;;;20.83;5.55;;;26.40;99.90;;;;;;5030599;28;20032;-74
2023/09/20 03:37:47;;;;;;;;;;;26.40;99.90;;;;;;5032493;28;20112;-73
2023/09/20 03:40:17;;;;;;;;;;;26.40;99.90;;;;;;5032962;28;19905;-73
2023/09/20 03:42:44;;;;;;;16.00;5.50;;;26.40;99.90;;;;;;5032605;28;19905;-74
2023/09/20 03:45:11;;;;;;;16.73;5.82;;;26.30;99.90;;;;;;5032241;28;20441;-73
2023/09/20 03:47:38;;;;;;;15.55;6.05;;;26.10;99.90;;;;;;5032718;28;20071;-73
2023/09/20 03:50:04;;;;;;;;;;;25.90;99.90;;;;;;5033289;28;20021;-73
2023/09/20 03:52:31;;;;;;;19.58;5.90;;;25.90;99.90;;;;;;5032512;28;20341;-74
2023/09/20 03:54:57;;;;;;;19.60;6.05;;;25.90;99.90;;;;;;5032871;28;20113;-74
2023/09/20 03:57:25;;;;;;;15.10;6.32;;;25.90;99.90;;;;;;5030794;28;20037;-75
2023/09/20 03:59:52;;;;;;;26.52;6.78;;;25.90;99.90;;;;;;5032682;28;20108;-75
2023/09/20 04:02:19;;;;;;;22.38;6.38;;;25.80;99.90;;;;;;5032231;28;20491;-73
2023/09/20 04:04:44;;;;;;;;;;;25.90;99.90;;;;;;5032543;28;20032;-74
2023/09/20 04:07:10;;;;;;;;;;;25.90;99.90;;;;;;5030813;28;19905;-73
2023/09/20 04:09:36;;;;;;;19.00;5.97;;;25.90;99.90;;;;;;5032231;28;20055;-75
2023/09/20 04:12:04;;;;;;;21.85;5.95;;;26.00;99.90;;;;;;5032012;28;20021;-74
2023/09/20 04:14:31;;;;;;;19.45;6.05;;;26.00;99.90;;;;;;5030635;28;20103;-74
2023/09/20 04:16:57;;;;;;;23.27;6.03;;;26.00;99.90;;;;;;5032890;28;20036;-75
2023/09/20 04:19:24;;;;;;;22.30;6.30;;;26.00;99.90;;;;;;5032915;28;20025;-73
2023/09/20 04:21:50;;;;;;;21.85;5.72;;;26.00;99.90;;;;;;5032872;28;20037;-73
2023/09/20 04:24:17;;;;;;;22.80;6.13;;;26.10;99.90;;;;;;5032748;28;20071;-74
2023/09/20 04:26:43;;;;;;;17.55;6.20;;;26.00;99.90;;;;;;5032815;28;20034;-73
2023/09/20 04:29:10;;;;;;;16.77;5.85;;;26.00;99.90;;;;;;5032782;28;20049;-73
2023/09/20 04:31:37;;;;;;;23.67;6.03;;;26.00;99.90;;;;;;5032685;28;20030;-74
2023/09/20 04:34:05;;;;;;;23.05;6.10;;;26.00;99.90;;;;;;5032839;28;20013;-75
2023/09/20 04:36:31;;;;;;;24.35;6.10;;;26.00;99.90;;;;;;5032544;28;20185;-73
2023/09/20 04:38:57;;;;;;;18.73;5.80;;;26.10;99.90;;;;;;5031464;28;20058;-73
2023/09/20 04:41:23;;;;;;;23.33;6.55;;;26.10;99.90;;;;;;5033087;28;20033;-74
2023/09/20 04:43:50;;;;;;;19.38;6.35;;;26.00;99.90;;;;;;5033187;28;20425;-74
2023/09/20 04:46:16;;;;;;;19.77;6.03;;;25.90;99.90;;;;;;5032538;28;20405;-73
2023/09/20 04:48:42;;;;;;;21.05;6.00;;;25.90;99.90;;;;;;5033112;28;20017;-73
2023/09/20 04:51:11;;;;;;;18.75;5.90;;;25.90;99.90;;;;;;5033050;28;20065;-73
2023/09/20 04:53:39;;;;;;;24.50;6.10;;;25.80;99.90;;;;;;5032219;28;20481;-73
2023/09/20 04:56:06;;;;;;;23.52;6.20;;;25.80;99.90;;;;;;5032603;28;20025;-73
2023/09/20 04:58:32;;;;;;;25.35;6.75;;;25.80;99.90;;;;;;5032839;28;20032;-73
2023/09/20 05:00:59;;;;;;;20.90;6.15;;;25.80;99.90;;;;;;5032383;28;20025;-73
2023/09/20 05:03:25;;;;;;;21.80;5.97;;;25.80;99.90;;;;;;5032130;28;20026;-73
2023/09/20 05:05:52;;;;;;;42.90;10.43;;;25.80;99.90;;;;;;5032383;28;20025;-73
2023/09/20 05:08:18;;;;;;;19.33;6.72;;;25.80;99.90;;;;;;5032101;28;20026;-73
2023/09/20 05:10:44;;;;;;;26.15;6.63;;;25.80;99.90;;;;;;5032362;28;20108;-73
2023/09/20 05:13:11;;;;;;;25.77;6.68;;;25.90;99.90;;;;;;5032310;28;20504;-73
2023/09/20 05:15:38;;;;;;;23.65;6.15;;;25.80;99.90;;;;;;5032532;28;20029;-73
2023/09/20 05:18:05;;;;;;;20.52;5.88;;;25.90;99.90;;;;;;5032177;28;20097;-73
2023/09/20 05:20:31;;;;;;;25.08;6.30;;;25.90;99.90;;;;;;5032201;28;20099;-73
2023/09/20 05:22:59;;;;;;;28.33;6.28;;;25.90;99.90;;;;;;5032427;28;20022;-73
2023/09/20 05:25:25;;;;;;;26.48;5.85;;;26.10;99.90;;;;;;5032620;28;20466;-73
2023/09/20 05:27:54;;;;;;;14.52;5.63;;;26.20;99.90;;;;;;5032497;28;20060;-73
2023/09/20 05:30:21;;;;;;;19.80;6.28;;;26.40;99.90;;;;;;5031708;28;20133;-73
2023/09/20 05:32:51;;;;;;;16.10;5.78;;;26.60;99.90;;;;;;5029993;28;20326;-73
2023/09/20 05:35:18;;;;;;;19.60;6.38;;;26.60;99.90;;;;;;5031497;28;20106;-74
2023/09/20 05:37:44;;;;;;;;;;;26.70;99.90;;;;;;5031645;28;20454;-73
2023/09/20 05:40:19;;;;;;;17.67;6.18;;;26.80;99.90;;;;;;5030606;28;19905;-74
2023/09/20 05:42:46;;;;;;;23.55;5.57;;;26.90;99.90;;;;;;5032118;28;20522;-74
2023/09/20 05:45:13;;;;;;;25.25;5.88;;;27.10;99.90;;;;;;5034882;28;20022;-74
2023/09/20 05:47:40;;;;;;;17.70;5.88;;;27.50;99.90;;;;;;5034817;28;20426;-75
2023/09/20 05:50:10;;;;;;;18.33;5.88;;;27.90;99.90;;;;;;5034722;28;20021;-74
2023/09/20 05:52:40;;;;;;;29.13;11.13;;;28.40;99.90;;;;;;5033767;28;20357;-75
2023/09/20 05:55:14;;;;;;;33.85;8.20;;;29.10;99.90;;;;;;5032220;28;20069;-75
2023/09/20 05:57:46;;;;;;;29.85;7.20;;;29.50;99.90;;;;;;5034310;28;20060;-74
2023/09/20 06:00:18;;;;;;;18.42;6.03;;;30.10;99.90;;;;;;5034060;28;20072;-74
2023/09/20 06:02:45;;;;;;;25.92;7.03;;;29.90;99.90;;;;;;5034750;28;20175;-76
2023/09/20 06:05:11;;;;;;;34.13;6.40;;;30.10;99.90;;;;;;5035401;28;20022;-74
2023/09/20 06:07:40;;;;;;;43.28;7.63;;;30.50;99.90;;;;;;5035208;28;20041;-74
2023/09/20 06:10:07;;;;;;;30.05;7.32;;;31.20;99.90;;;;;;5034899;28;20026;-76
2023/09/20 06:12:34;;;;;;;28.58;7.25;;;31.70;99.90;;;;;;5033750;28;20033;-80
2023/09/20 06:15:00;;;;;;;57.25;7.82;;;32.10;99.90;;;;;;5032504;28;20535;-77
2023/09/20 06:17:29;;;;;;;;;;;32.20;99.90;;;;;;5034854;28;20037;-76
2023/09/20 06:19:59;;;;;;;27.80;6.90;;;32.20;99.90;;;;;;5034783;28;19976;-75
2023/09/20 06:22:31;;;;;;;21.58;5.97;;;32.60;99.90;;;;;;5034020;28;20084;-74
2023/09/20 06:24:58;;;;;;;24.73;5.88;;;33.40;99.90;;;;;;5034381;28;20033;-74
2023/09/20 06:27:30;;;;;;;25.55;6.22;;;33.60;99.90;;;;;;5033107;28;20108;-74
2023/09/20 06:30:00;;;;;;;29.52;6.38;;;33.80;99.90;;;;;;5033312;28;20022;-75
2023/09/20 06:32:28;;;;;;;25.98;6.18;;;34.00;99.90;;;;;;5033466;28;20112;-74
2023/09/20 06:34:54;;;;;;;26.50;6.10;;;34.10;99.90;;;;;;5031750;28;20445;-73
2023/09/20 06:37:21;;;;;;;24.13;5.68;;;33.90;99.90;;;;;;5032954;28;20327;-74
2023/09/20 06:39:47;;;;;;;25.77;5.47;;;33.60;99.90;;;;;;5031326;28;20091;-75
2023/09/20 06:42:14;;;;;;;19.63;5.03;;;33.20;99.90;;;;;;5033466;28;20037;-74
2023/09/20 06:44:40;;;;;;;19.65;4.63;;;32.80;99.90;;;;;;5031761;28;20053;-75
2023/09/20 06:47:06;;;;;;;;;;;32.40;99.90;;;;;;5033518;28;20095;-76
2023/09/20 06:49:33;;;;;;;21.70;5.00;;;31.80;99.90;;;;;;5033242;28;19928;-76
2023/09/20 06:52:03;;;;;;;20.33;5.05;;;31.70;99.90;;;;;;5033252;28;20049;-75
2023/09/20 06:54:29;;;;;;;20.80;5.03;;;31.60;99.90;;;;;;5033117;28;20053;-74
2023/09/20 06:57:02;;;;;;;20.50;5.60;;;31.20;99.90;;;;;;5031227;28;20499;-74
2023/09/20 06:59:33;;;;;;;29.63;6.50;;;30.60;99.90;;;;;;5032906;28;20030;-73
2023/09/20 07:02:02;;;;;;;36.65;6.00;;;30.20;99.90;;;;;;5032724;28;20528;-73
2023/09/20 07:04:30;;;;;;;23.60;5.85;;;29.90;99.90;;;;;;5032223;28;20455;-73
2023/09/20 07:07:00;;;;;;;22.05;5.78;;;29.80;99.90;;;;;;5030821;28;20352;-74
2023/09/20 07:09:26;;;;;;;23.80;6.22;;;29.90;99.90;;;;;;5032242;28;20049;-75
2023/09/20 07:11:53;;;;;;;25.98;5.90;;;29.80;99.90;;;;;;5031310;28;20422;-74
2023/09/20 07:14:23;;;;;;;24.90;5.72;;;29.60;99.90;;;;;;5032476;28;20025;-74
2023/09/20 07:16:52;;;;;;;29.05;6.40;;;29.60;99.90;;;;;;5032686;28;20037;-74
2023/09/20 07:19:23;;;;;;;25.98;6.50;;;30.10;99.90;;;;;;5032704;28;20021;-75
2023/09/20 07:21:50;;;;;;;26.13;6.63;;;30.40;99.90;;;;;;5032297;28;20061;-73
2023/09/20 07:24:16;;;;;;;28.10;7.10;;;30.50;99.90;;;;;;5032021;28;20025;-74
2023/09/20 07:26:46;;;;;;;30.08;7.05;;;30.60;99.90;;;;;;5032181;28;20087;-74
2023/09/20 07:29:15;;;;;;;28.50;5.25;;;30.90;99.90;;;;;;5032110;28;20022;-75
2023/09/20 07:31:42;;;;;;;31.15;5.97;;;31.10;99.90;;;;;;5032108;28;20105;-75
2023/09/20 07:34:17;;;;;;;21.60;6.22;;;31.10;99.90;;;;;;5031940;28;20056;-74
2023/09/20 07:36:43;;;;;;;23.27;5.75;;;31.30;99.90;;;;;;5031681;28;20099;-73
2023/09/20 07:39:13;;;;;;;22.33;5.80;;;30.90;99.90;;;;;;5031968;28;20017;-75
2023/09/20 07:41:46;;;;;;;23.10;5.85;;;30.80;99.90;;;;;;5030781;28;20393;-75
2023/09/20 07:44:15;;;;;;;23.02;5.93;;;30.50;99.90;;;;;;5032231;28;20478;-74
2023/09/20 07:46:42;;;;;;;25.35;5.60;;;30.50;99.90;;;;;;5029783;28;20057;-74
2023/09/20 07:49:09;;;;;;;18.42;6.30;;;30.70;99.90;;;;;;5031754;28;20029;-74
2023/09/20 07:51:39;;;;;;;43.40;7.15;;;31.00;99.90;;;;;;5031650;28;20057;-74
2023/09/20 07:54:14;;;;;;;24.30;5.70;;;31.10;99.90;;;;;;5031478;28;20037;-73
2023/09/20 07:56:43;;;;;;;28.20;6.07;;;31.30;99.90;;;;;;5031906;28;20132;-75
2023/09/20 07:59:13;;;;;;;24.55;6.00;;;31.50;99.90;;;;;;5031603;28;20030;-75
2023/09/20 08:01:41;;;;;;;25.58;6.22;;;31.60;99.90;;;;;;5032108;28;20026;-74
2023/09/20 08:04:10;;;;;;;26.58;6.15;;;31.50;99.90;;;;;;5031562;28;20066;-74
2023/09/20 08:06:37;;;;;;;23.25;5.72;;;31.30;99.90;;;;;;5031043;28;20484;-73
2023/09/20 08:09:04;;;;;;;32.72;5.78;;;31.50;99.90;;;;;;5031618;28;20557;-74
2023/09/20 08:11:32;;;;;;;21.17;6.00;;;31.90;99.90;;;;;;5032021;28;20472;-75
2023/09/20 08:14:00;;;;;;;25.15;5.85;;;32.20;99.90;;;;;;5031228;28;20040;-75
2023/09/20 08:16:32;;;;;;;23.88;6.05;;;32.60;99.90;;;;;;5031814;28;20029;-74
2023/09/20 08:19:20;;;;;;;25.77;6.38;;;32.70;99.90;;;;;;5031531;28;20053;-74
2023/09/20 08:21:47;;;;;;;25.52;6.25;;;32.70;99.90;;;;;;5032080;28;20029;-74
2023/09/20 09:00:30;;;;;;;25.75;6.03;;;34.30;99.90;;;;;;5031120;28;20381;-74
2023/09/20 09:02:58;;;;;;;17.85;5.55;;;34.20;99.90;;;;;;5029506;28;20113;-74
2023/09/20 09:05:27;;;;;;;20.95;5.97;;;33.90;99.90;;;;;;5030807;28;20100;-74
2023/09/20 09:07:54;;;;;;;25.75;5.85;;;34.00;99.90;;;;;;5030854;28;20048;-73
2023/09/20 09:10:21;;;;;;;24.55;5.22;;;33.70;99.90;;;;;;5030595;28;20474;-75
2023/09/20 09:12:47;;;;;;;34.95;6.13;;;33.70;99.90;;;;;;5030619;28;20409;-75
2023/09/20 09:15:16;;;;;;;28.98;4.90;;;33.70;99.90;;;;;;5030192;28;20437;-75
2023/09/20 09:17:47;;;;;;;25.80;4.85;;;33.60;99.90;;;;;;5030654;28;20144;-76
2023/09/20 09:20:15;;;;;;;18.17;4.70;;;33.10;99.90;;;;;;5034555;28;20096;-74
2023/09/20 09:22:46;;;;;;;24.45;4.72;;;33.20;99.90;;;;;;5034369;28;20081;-74
2023/09/20 09:25:14;;;;;;;26.60;4.60;;;33.50;99.90;;;;;;5034376;28;20136;-74
2023/09/20 09:27:42;;;;;;;25.48;5.15;;;33.50;99.90;;;;;;5033017;28;20052;-74
2023/09/20 09:30:12;;;;;;;19.58;4.38;;;33.50;99.90;;;;;;5034503;28;20025;-75
2023/09/20 09:32:39;;;;;;;23.25;4.95;;;33.40;99.90;;;;;;5035171;28;20516;-73
2023/09/20 09:35:07;;;;;;;23.02;4.57;;;33.20;99.90;;;;;;5034799;28;20021;-74
2023/09/20 09:37:35;;;;;;;17.60;3.90;;;32.90;99.90;;;;;;5034330;28;20091;-75
2023/09/20 09:40:03;;;;;;;16.70;4.45;;;32.90;99.90;;;;;;5032375;28;20539;-75
2023/09/20 09:42:29;;;;;;;22.23;4.80;;;32.70;99.90;;;;;;5034366;28;20510;-75
2023/09/20 09:44:56;;;;;;;30.88;5.18;;;32.80;99.90;;;;;;5033985;28;20083;-75
2023/09/20 09:47:25;;;;;;;24.73;4.55;;;32.60;99.90;;;;;;5033917;28;20121;-75
2023/09/20 09:49:55;;;;;;;29.20;5.00;;;32.80;99.90;;;;;;5032221;28;20037;-74
2023/09/20 09:52:26;;;;;;;20.80;4.88;;;32.80;99.90;;;;;;5034091;28;20053;-74
2023/09/20 09:54:52;;;;;;;19.02;4.80;;;32.90;99.90;;;;;;5033317;28;20029;-74
2023/09/20 09:57:19;;;;;;;23.52;3.88;;;33.00;99.90;;;;;;5033383;28;20124;-74
2023/09/20 09:59:52;;;;;;;17.73;4.20;;;33.00;99.90;;;;;;5033275;28;20026;-74
2023/09/20 10:02:24;;;;;;;21.60;4.22;;;32.50;99.90;;;;;;5032944;28;20385;-74
2023/09/20 10:05:01;;;;;;;19.67;4.28;;;32.50;99.90;;;;;;5033088;28;20100;-75
2023/09/20 10:07:50;;;;;;;20.38;3.53;;;32.70;99.90;;;;;;5033287;28;20021;-75
2023/09/20 10:10:16;;;;;;;14.02;3.97;;;32.30;99.90;;;;;;5031113;28;20103;-75
2023/09/20 10:12:46;;;;;;;15.18;3.25;;;32.70;99.90;;;;;;5032846;28;20118;-74
2023/09/20 10:15:15;;;;;;;19.58;3.58;;;32.50;99.90;;;;;;5033071;28;20096;-74
2023/09/20 10:17:59;;;;;;;15.00;3.90;;;32.50;99.90;;;;;;5033309;28;20445;-75
2023/09/20 10:21:10;;;;;;;13.38;3.38;;;32.30;99.90;;;;;;5033322;28;20422;-74
2023/09/20 10:23:39;;;;;;;15.10;3.65;;;32.20;99.90;;;;;;5033129;28;20057;-74
2023/09/20 10:26:16;;;;;;;22.30;3.83;;;31.80;99.90;;;;;;5033298;28;20351;-75
2023/09/20 10:28:44;;;;;;;25.38;3.97;;;32.10;99.90;;;;;;5031771;28;20031;-74
2023/09/20 10:31:18;;;;;;;18.75;4.20;;;32.10;99.90;;;;;;5033273;28;20025;-74
2023/09/20 10:33:56;;;;;;;20.83;4.05;;;32.10;99.90;;;;;;5033161;28;20495;-75
2023/09/20 10:36:29;;;;;;;18.30;4.47;;;32.10;99.90;;;;;;5032853;28;20415;-74
2023/09/20 10:39:21;;;;;;;23.00;4.03;;;31.90;99.90;;;;;;5033177;28;20029;-73
2023/09/20 10:41:53;;;;;;;23.98;3.70;;;32.30;99.90;;;;;;5033020;28;20032;-74
2023/09/20 10:44:38;;;;;;;26.63;4.13;;;32.70;99.90;;;;;;5033337;28;20013;-75
2023/09/20 10:47:08;;;;;;;23.45;4.28;;;33.00;99.90;;;;;;5031310;28;20065;-73
2023/09/20 10:49:48;;;;;;;28.25;4.05;;;33.10;99.90;;;;;;5032953;28;20112;-75
2023/09/20 10:52:37;;;;;;;24.10;4.43;;;33.10;99.90;;;;;;5033541;28;20134;-75
2023/09/20 10:55:18;;;;;;;27.52;4.05;;;33.40;99.90;;;;;;5031298;28;20025;-75
2023/09/20 10:57:50;;;;;;;25.92;3.85;;;33.30;99.90;;;;;;5033309;28;20460;-74
2023/09/20 11:00:25;;;;;;;27.60;4.10;;;33.20;99.90;;;;;;5032600;28;20508;-74
2023/09/20 11:02:55;;;;;;;16.77;3.87;;;33.10;99.90;;;;;;5032418;28;20118;-73
2023/09/20 11:05:28;;;;;;;22.95;3.88;;;33.10;99.90;;;;;;5033281;28;20458;-73
2023/09/20 11:07:55;;;;;;;27.15;4.32;;;33.30;99.90;;;;;;5032753;28;20052;-74
2023/09/20 11:10:22;;;;;;;23.55;4.07;;;33.10;99.90;;;;;;5032959;28;20017;-74
2023/09/20 11:12:50;;;;;;;22.50;3.95;;;32.80;99.90;;;;;;5031422;28;20035;-74
2023/09/20 11:15:16;;;;;;;23.27;4.50;;;33.00;99.90;;;;;;5032809;28;20021;-74
2023/09/20 11:17:42;;;;;;;22.58;6.65;;;33.20;99.90;;;;;;5032954;28;20068;-74
2023/09/20 11:20:12;;;;;;;28.05;6.53;;;33.20;99.90;;;;;;5032676;28;20033;-73
2023/09/20 11:22:38;;;;;;;26.27;6.88;;;33.30;99.90;;;;;;5032859;28;20033;-74
2023/09/20 11:25:05;;;;;;;27.85;4.72;;;33.30;99.90;;;;;;5032363;28;20029;-74
2023/09/20 11:27:36;;;;;;;28.77;6.00;;;33.30;99.90;;;;;;5032690;28;20022;-76
2023/09/20 11:30:10;;;;;;;30.23;4.72;;;33.10;99.90;;;;;;5032580;28;20520;-74
2023/09/20 11:32:39;;;;;;;24.55;3.53;;;32.90;99.90;;;;;;5032547;28;20033;-73
2023/09/20 11:35:07;;;;;;;17.70;4.00;;;32.80;99.90;;;;;;5032514;28;20021;-74
2023/09/20 11:37:38;;;;;;;38.50;9.20;;;33.10;99.90;;;;;;5032227;28;20044;-74
2023/09/20 11:40:06;;;;;;;22.75;7.97;;;33.10;99.90;;;;;;5030484;28;20025;-73
2023/09/20 11:42:34;;;;;;;28.95;4.65;;;33.00;99.90;;;;;;5031640;28;20119;-74
2023/09/20 11:45:07;;;;;;;22.27;4.22;;;32.80;99.90;;;;;;5032238;28;20087;-74
2023/09/20 11:47:37;;;;;;;26.50;7.40;;;32.60;99.90;;;;;;5030857;28;20057;-74
2023/09/20 11:50:04;;;;;;;24.23;6.22;;;32.70;99.90;;;;;;5031908;28;20033;-74
2023/09/20 11:52:31;;;;;;;26.65;5.22;;;33.10;99.90;;;;;;5032351;28;20407;-73
2023/09/20 11:54:59;;;;;;;20.05;5.18;;;33.10;99.90;;;;;;5032827;28;20109;-73
2023/09/20 11:57:26;;;;;;;38.88;5.78;;;33.20;99.90;;;;;;5032993;28;20033;-73
2023/09/20 11:59:54;;;;;;;28.73;6.35;;;33.00;99.90;;;;;;5033362;28;20361;-74
2023/09/20 12:02:23;;;;;;;34.00;5.35;;;32.70;99.90;;;;;;5031080;28;20037;-73
2023/09/20 12:04:52;;;;;;;22.08;6.18;;;32.70;99.90;;;;;;5033262;28;20097;-74
2023/09/20 12:07:19;;;;;;;31.63;7.10;;;32.80;99.90;;;;;;5031198;28;20033;-74
2023/09/20 12:09:45;;;;;;;21.50;4.57;;;32.60;99.90;;;;;;5033275;28;20021;-74
2023/09/20 12:12:11;;;;;;;27.40;5.95;;;32.30;99.90;;;;;;5032998;28;20041;-74
2023/09/20 12:14:40;;;;;;;;;;;31.80;99.90;;;;;;5033591;28;20026;-74
2023/09/20 12:17:07;;;;;;;24.05;6.03;;;31.70;99.90;;;;;;5033012;28;19912;-74
2023/09/20 12:19:33;;;;;;;32.90;6.68;;;31.80;99.90;;;;;;5032848;28;20035;-73
2023/09/20 12:22:00;;;;;;;25.35;7.03;;;32.00;99.90;;;;;;5033073;28;20033;-73
2023/09/20 12:24:27;;;;;;;24.02;6.15;;;32.00;99.90;;;;;;5031411;28;20113;-73
2023/09/20 12:26:54;;;;;;;27.48;6.13;;;32.10;99.90;;;;;;5033277;28;20030;-74
2023/09/20 12:29:20;;;;;;;21.58;5.05;;;32.10;99.90;;;;;;5031609;28;20489;-75
2023/09/20 12:31:49;;;;;;;22.80;4.93;;;32.10;99.90;;;;;;5032791;28;20083;-74
2023/09/20 12:34:16;;;;;;;24.67;4.80;;;32.00;99.90;;;;;;5033017;28;20484;-75
2023/09/20 12:36:42;;;;;;;23.85;4.40;;;31.80;99.90;;;;;;5032848;28;20038;-74
2023/09/20 12:39:10;;;;;;;22.67;4.15;;;31.80;99.90;;;;;;5032771;28;20032;-75
2023/09/20 12:41:42;;;;;;;37.42;5.10;;;31.40;99.90;;;;;;5033284;28;20029;-74
2023/09/20 12:44:09;;;;;;;25.90;4.40;;;31.10;99.90;;;;;;5031707;28;20033;-74
2023/09/20 12:46:36;;;;;;;19.52;3.92;;;31.00;99.90;;;;;;5032801;28;20418;-74
2023/09/20 12:49:05;;;;;;;18.88;4.20;;;31.20;99.90;;;;;;5032719;28;20013;-75
2023/09/20 12:51:31;;;;;;;22.33;4.40;;;31.10;99.90;;;;;;5032344;28;20026;-74
2023/09/20 12:53:57;;;;;;;;;;;31.00;99.90;;;;;;5036666;28;20096;-74
2023/09/20 12:56:23;;;;;;;21.20;4.50;;;31.10;99.90;;;;;;5036328;28;20008;-74
2023/09/20 12:58:50;;;;;;;;;;;31.10;99.90;;;;;;5037260;28;20033;-74
2023/09/20 13:01:17;;;;;;;30.45;4.88;;;31.00;99.90;;;;;;5036510;28;19905;-74
2023/09/20 13:03:43;;;;;;;;;;;30.80;99.90;;;;;;5036781;28;20417;-74
2023/09/20 13:06:14;;;;;;;23.38;4.70;;;30.60;99.90;;;;;;5036762;28;19932;-75
2023/09/20 13:08:41;;;;;;;25.65;4.50;;;30.80;99.90;;;;;;5036537;28;20108;-74
2023/09/20 13:11:10;;;;;;;24.13;4.53;;;30.80;99.90;;;;;;5036251;28;20128;-74
2023/09/20 13:13:41;;;;;;;24.02;4.15;;;30.80;99.90;;;;;;5036175;28;20485;-74
2023/09/20 13:16:11;;;;;;;19.42;4.40;;;30.70;99.90;;;;;;5035983;28;20029;-74
2023/09/20 13:18:38;;;;;;;19.67;4.07;;;30.70;99.90;;;;;;5036637;28;20029;-74
2023/09/20 13:21:04;;;;;;;24.55;4.90;;;30.60;99.90;;;;;;5036236;28;20032;-74
2023/09/20 13:23:31;;;;;;;18.70;4.35;;;30.70;99.90;;;;;;5035958;28;20460;-74
2023/09/20 13:25:59;;;;;;;20.85;4.50;;;30.60;99.90;;;;;;5036400;28;20105;-74